Terminal Aerodrome Forecast
Issued by NWS

Home | Current Version | Previous Version | Text Only | Print | Product List | Glossary On
Versions: 1 2 3 4 5 6 7 8 9 10 11 12 13 14 15 16 17 18 19 20 21 22 23 24 25 26
000
FTUS41 KCAR 160300 AAB
TAFBHB
TAF AMD
KBHB 160356Z 1604/1624 24009KT 6SM -RASN BR OVC005 WS020/20055KT
     FM160500 26009G16KT 5SM -RASN BR OVC006
     FM160600 32015G23KT 2SM -SN OVC018
     FM160800 32016G24KT 5SM -SHSN OVC028
     FM161000 32017G25KT P6SM BKN040
     FM161400 32020G28KT P6SM SCT100
     FM162200 31011G19KT P6SM SKC
      AMD LTD TO CLD VIS AND WIND=

USA.gov is the U.S. government's official web portal to all federal, state and local government web resources and services.